createdAt,value
2017-11-26T00:00:34.668Z,70.60
2017-11-26T00:03:03.112Z,71.00
2017-11-26T00:05:32.070Z,70.60
2017-11-26T00:08:00.966Z,70.90
2017-11-26T00:10:29.840Z,70.80
2017-11-26T00:12:57.988Z,70.80
2017-11-26T00:15:26.100Z,70.60
2017-11-26T00:17:55.004Z,71.30
2017-11-26T00:20:23.114Z,71.30
2017-11-26T00:22:51.296Z,71.50
2017-11-26T00:25:19.408Z,71.60
2017-11-26T00:27:48.297Z,71.20
2017-11-26T00:30:17.204Z,71.60
2017-11-26T00:32:45.319Z,71.60
2017-11-26T00:35:13.441Z,71.50
2017-11-26T00:37:41.559Z,71.90
2017-11-26T00:40:09.737Z,71.90
2017-11-26T00:42:38.143Z,71.60
2017-11-26T00:45:07.045Z,70.60
2017-11-26T00:47:35.941Z,69.40
2017-11-26T00:50:04.071Z,69.30
2017-11-26T00:52:32.202Z,68.60
2017-11-26T00:55:00.311Z,68.80
2017-11-26T00:57:28.440Z,69.40
2017-11-26T00:59:56.556Z,69.90
2017-11-26T01:02:30.251Z,70.20
2017-11-26T01:05:11.220Z,70.00
2017-11-26T01:07:42.107Z,70.10
2017-11-26T01:10:10.247Z,70.00
2017-11-26T01:12:38.425Z,70.40
2017-11-26T01:15:06.624Z,70.60
2017-11-26T01:17:35.532Z,70.80
2017-11-26T01:20:03.653Z,70.90
2017-11-26T01:22:37.284Z,70.70
2017-11-26T01:25:06.717Z,70.80
2017-11-26T01:27:34.852Z,70.80
2017-11-26T01:30:02.959Z,71.00
2017-11-26T01:32:31.093Z,70.90
2017-11-26T01:34:59.211Z,71.10
2017-11-26T01:37:27.334Z,70.70
2017-11-26T01:39:55.453Z,70.50
2017-11-26T01:42:23.579Z,70.60
2017-11-26T01:44:52.469Z,70.70
2017-11-26T01:47:21.353Z,70.40
2017-11-26T01:49:49.489Z,70.40
2017-11-26T01:52:17.607Z,70.50
2017-11-26T01:54:46.478Z,70.80
2017-11-26T01:57:14.605Z,70.70
2017-11-26T01:59:42.732Z,70.60
2017-11-26T02:02:10.891Z,70.20
2017-11-26T02:04:39.001Z,70.20
2017-11-26T02:07:07.905Z,70.20
2017-11-26T02:09:36.769Z,70.80
2017-11-26T02:12:05.650Z,69.80
2017-11-26T02:14:34.611Z,69.90
2017-11-26T02:17:02.733Z,69.90
2017-11-26T02:19:30.856Z,69.70
2017-11-26T02:21:59.006Z,69.80
2017-11-26T02:24:27.116Z,69.80
2017-11-26T02:26:55.250Z,69.70
2017-11-26T02:29:23.363Z,69.60
2017-11-26T02:32:03.398Z,69.50
2017-11-26T02:34:43.473Z,69.50
2017-11-26T02:37:12.380Z,69.50
2017-11-26T02:39:41.258Z,69.30
2017-11-26T02:42:10.278Z,69.50
2017-11-26T02:44:38.399Z,69.50
2017-11-26T02:47:06.533Z,70.20
2017-11-26T02:49:34.652Z,69.80
2017-11-26T02:52:02.817Z,69.90
2017-11-26T02:54:30.954Z,69.80
2017-11-26T02:56:59.082Z,69.90
2017-11-26T02:59:27.194Z,69.70
2017-11-26T03:01:55.315Z,69.50
2017-11-26T03:04:23.444Z,69.60
2017-11-26T03:06:51.551Z,69.60
2017-11-26T03:09:21.183Z,70.00
2017-11-26T03:11:50.053Z,70.00
2017-11-26T03:14:19.802Z,70.00
2017-11-26T03:16:47.923Z,70.00
2017-11-26T03:19:16.056Z,69.80
2017-11-26T03:21:44.163Z,69.60
2017-11-26T03:24:12.302Z,69.70
2017-11-26T03:26:40.444Z,69.90
2017-11-26T03:29:09.338Z,70.40
2017-11-26T03:31:38.234Z,70.30
2017-11-26T03:34:07.119Z,70.40
2017-11-26T03:36:36.010Z,70.80
2017-11-26T03:39:04.942Z,71.00
2017-11-26T03:41:33.070Z,70.90
2017-11-26T03:44:01.973Z,70.70
2017-11-26T03:46:30.857Z,70.90
2017-11-26T03:48:59.750Z,71.10
2017-11-26T03:51:28.662Z,71.10
2017-11-26T03:53:56.799Z,71.10
2017-11-26T03:56:25.688Z,71.10
2017-11-26T03:58:54.682Z,71.30
2017-11-26T04:01:23.676Z,71.50
2017-11-26T04:03:52.575Z,71.80
2017-11-26T04:06:20.697Z,71.80
2017-11-26T04:08:48.826Z,71.90
2017-11-26T04:11:16.970Z,72.20
2017-11-26T04:13:45.100Z,72.10
2017-11-26T04:16:13.199Z,71.30
2017-11-26T04:18:41.354Z,71.20
2017-11-26T04:21:09.471Z,71.30
2017-11-26T04:23:38.355Z,71.10
2017-11-26T04:26:07.252Z,70.80
2017-11-26T04:28:36.164Z,71.20
2017-11-26T04:31:04.309Z,71.20
2017-11-26T04:33:33.196Z,71.60
2017-11-26T04:36:01.321Z,71.60
2017-11-26T04:38:29.454Z,71.70
2017-11-26T04:40:58.338Z,71.40
2017-11-26T04:43:27.243Z,71.10
2017-11-26T04:45:55.354Z,71.10
2017-11-26T04:48:23.573Z,70.80
2017-11-26T04:50:52.461Z,70.80
2017-11-26T04:53:21.363Z,70.90
2017-11-26T04:55:49.480Z,70.90
2017-11-26T04:58:17.592Z,70.80
2017-11-26T05:00:46.482Z,70.60
2017-11-26T05:03:15.480Z,70.10
2017-11-26T05:05:44.381Z,70.10
2017-11-26T05:08:12.491Z,70.00
2017-11-26T05:10:40.640Z,69.50
2017-11-26T05:13:08.757Z,69.70
2017-11-26T05:15:36.911Z,69.80
2017-11-26T05:18:05.048Z,69.70
2017-11-26T05:20:33.162Z,69.70
2017-11-26T05:23:01.433Z,69.90
2017-11-26T05:25:29.567Z,69.80
2017-11-26T05:27:57.863Z,69.90
2017-11-26T05:30:26.131Z,70.10
2017-11-26T05:32:54.236Z,70.00
2017-11-26T05:35:22.357Z,69.70
2017-11-26T05:37:50.487Z,69.10
2017-11-26T05:40:18.626Z,68.60
2017-11-26T05:42:46.749Z,67.70
2017-11-26T05:45:14.885Z,66.80
2017-11-26T05:47:42.995Z,66.50
2017-11-26T05:50:11.895Z,66.10
2017-11-26T05:52:40.784Z,65.50
2017-11-26T05:55:09.702Z,65.40
2017-11-26T05:57:38.658Z,65.50
2017-11-26T06:00:07.589Z,65.50
2017-11-26T06:02:35.710Z,65.50
2017-11-26T06:05:03.887Z,65.60
2017-11-26T06:07:31.989Z,65.00
2017-11-26T06:10:00.125Z,65.50
2017-11-26T06:12:28.257Z,65.70
2017-11-26T06:14:56.381Z,65.90
2017-11-26T06:17:24.492Z,66.40
2017-11-26T06:19:52.615Z,66.80
2017-11-26T06:22:20.726Z,67.30
2017-11-26T06:24:48.924Z,67.70
2017-11-26T06:27:17.029Z,67.70
2017-11-26T06:29:45.155Z,67.40
2017-11-26T06:32:13.271Z,67.30
2017-11-26T06:34:41.399Z,67.30
2017-11-26T06:37:09.536Z,67.40
2017-11-26T06:39:38.441Z,68.20
2017-11-26T06:42:06.546Z,68.20
2017-11-26T06:44:34.650Z,68.40
2017-11-26T06:47:02.773Z,68.00
2017-11-26T06:49:30.919Z,67.40
2017-11-26T06:51:59.119Z,67.20
2017-11-26T06:54:27.970Z,66.40
2017-11-26T06:56:56.885Z,65.40
2017-11-26T06:59:25.745Z,64.90
2017-11-26T07:01:53.902Z,64.90
2017-11-26T07:04:22.047Z,64.00
2017-11-26T07:06:50.157Z,64.10
2017-11-26T07:09:18.279Z,63.50
2017-11-26T07:11:46.445Z,63.90
2017-11-26T07:14:14.548Z,64.10
2017-11-26T07:16:42.664Z,63.80
2017-11-26T07:19:11.550Z,63.50
2017-11-26T07:21:40.454Z,63.20
2017-11-26T07:24:09.508Z,63.50
2017-11-26T07:26:37.728Z,64.10
2017-11-26T07:29:06.600Z,63.00
2017-11-26T07:31:35.551Z,62.70
2017-11-26T07:34:03.658Z,62.60
2017-11-26T07:36:31.775Z,62.60
2017-11-26T07:38:59.898Z,63.00
2017-11-26T07:41:28.028Z,62.60
2017-11-26T07:43:56.136Z,62.30
2017-11-26T07:46:24.267Z,61.00
2017-11-26T07:48:52.420Z,61.20
2017-11-26T07:51:20.534Z,61.40
2017-11-26T07:53:48.645Z,60.80
2017-11-26T07:56:17.564Z,61.30
2017-11-26T07:58:45.737Z,61.30
2017-11-26T08:01:14.626Z,61.10
2017-11-26T08:03:42.772Z,61.10
2017-11-26T08:06:11.675Z,60.30
2017-11-26T08:08:40.577Z,60.50
2017-11-26T08:11:08.681Z,60.60
2017-11-26T08:13:36.805Z,60.60
2017-11-26T08:16:04.946Z,60.10
2017-11-26T08:18:33.091Z,60.20
2017-11-26T08:21:01.207Z,61.10
2017-11-26T08:23:30.097Z,60.50
2017-11-26T08:25:59.142Z,60.40
2017-11-26T08:28:27.272Z,60.40
2017-11-26T08:30:56.143Z,60.40
2017-11-26T08:33:24.271Z,60.00
2017-11-26T08:35:52.398Z,59.90
2017-11-26T08:38:20.512Z,60.00
2017-11-26T08:40:48.629Z,59.90
2017-11-26T08:43:16.760Z,59.80
2017-11-26T08:45:44.913Z,60.30
2017-11-26T08:48:13.054Z,60.90
2017-11-26T08:50:41.947Z,60.40
2017-11-26T08:53:10.852Z,60.40
2017-11-26T08:55:39.751Z,60.50
2017-11-26T08:58:08.641Z,61.00
2017-11-26T09:00:37.530Z,61.50
2017-11-26T09:03:05.680Z,61.50
2017-11-26T09:05:33.808Z,61.30
2017-11-26T09:08:02.699Z,61.30
2017-11-26T09:10:30.830Z,61.40
2017-11-26T09:12:59.760Z,60.60
2017-11-26T09:15:27.883Z,60.60
2017-11-26T09:17:56.781Z,60.00
2017-11-26T09:20:25.671Z,60.50
2017-11-26T09:22:54.580Z,60.20
2017-11-26T09:25:22.720Z,60.10
2017-11-26T09:27:50.860Z,59.50
2017-11-26T09:30:19.014Z,59.90
2017-11-26T09:32:47.143Z,59.50
2017-11-26T09:35:16.039Z,59.30
2017-11-26T09:37:45.052Z,59.00
2017-11-26T09:40:14.157Z,58.90
2017-11-26T09:42:42.301Z,58.80
2017-11-26T09:45:11.191Z,59.00
2017-11-26T09:47:40.112Z,58.20
2017-11-26T09:50:08.743Z,58.10
2017-11-26T09:52:36.892Z,58.40
2017-11-26T09:55:05.033Z,58.70
2017-11-26T09:57:33.150Z,57.90
2017-11-26T10:00:03.185Z,57.70
2017-11-26T10:02:31.323Z,57.90
2017-11-26T10:04:59.475Z,58.30
2017-11-26T10:07:28.366Z,58.10
2017-11-26T10:09:57.236Z,57.70
2017-11-26T10:12:26.116Z,57.40
2017-11-26T10:14:55.029Z,57.80
2017-11-26T10:17:23.219Z,57.80
2017-11-26T10:19:51.344Z,57.60
2017-11-26T10:22:20.292Z,57.70
2017-11-26T10:24:48.420Z,57.80
2017-11-26T10:27:17.311Z,58.30
2017-11-26T10:29:45.441Z,58.40
2017-11-26T10:32:13.587Z,58.70
2017-11-26T10:34:41.722Z,59.20
2017-11-26T10:37:10.615Z,60.20
2017-11-26T10:39:39.556Z,60.10
2017-11-26T10:42:07.721Z,60.10
2017-11-26T10:44:36.009Z,59.90
2017-11-26T10:47:04.167Z,60.30
2017-11-26T10:49:32.287Z,61.80
2017-11-26T10:52:00.455Z,62.20
2017-11-26T10:54:28.593Z,62.10
2017-11-26T10:56:57.158Z,62.40
2017-11-26T10:59:25.292Z,62.70
2017-11-26T11:01:53.470Z,62.10
2017-11-26T11:04:22.388Z,60.70
2017-11-26T11:06:50.521Z,60.70
2017-11-26T11:09:19.659Z,60.70
2017-11-26T11:11:47.807Z,59.70
2017-11-26T11:14:16.706Z,59.10
2017-11-26T11:16:46.789Z,59.40
2017-11-26T11:19:16.963Z,58.20
2017-11-26T11:21:45.080Z,58.20
2017-11-26T11:24:13.221Z,57.10
2017-11-26T11:26:41.338Z,55.80
2017-11-26T11:29:09.466Z,55.70
2017-11-26T11:31:37.633Z,54.80
2017-11-26T11:34:05.776Z,54.80
2017-11-26T11:36:33.943Z,55.50
2017-11-26T11:39:02.824Z,55.00
2017-11-26T11:41:31.729Z,55.60
2017-11-26T11:44:00.723Z,56.20
2017-11-26T11:46:28.876Z,56.20
2017-11-26T11:48:57.806Z,55.90
2017-11-26T11:51:25.914Z,55.90
2017-11-26T11:53:54.050Z,56.50
2017-11-26T11:56:22.203Z,57.10
2017-11-26T11:58:50.334Z,57.80
2017-11-26T12:01:18.478Z,58.80
2017-11-26T12:03:46.627Z,59.30
2017-11-26T12:06:14.759Z,59.40
2017-11-26T12:08:42.889Z,59.40
2017-11-26T12:11:11.034Z,59.50
2017-11-26T12:13:39.150Z,59.50
2017-11-26T12:16:08.120Z,59.10
2017-11-26T12:18:36.270Z,59.10
2017-11-26T12:21:05.191Z,59.20
2017-11-26T12:23:33.336Z,59.20
2017-11-26T12:26:14.337Z,59.60
2017-11-26T12:28:55.021Z,59.90
2017-11-26T12:31:37.948Z,64.40
2017-11-26T12:34:20.375Z,64.40
2017-11-26T12:37:04.409Z,67.60
2017-11-26T12:39:42.631Z,67.60
2017-11-26T12:42:23.024Z,68.80
2017-11-26T12:45:06.902Z,69.20
2017-11-26T12:47:49.472Z,70.20
2017-11-26T12:50:32.239Z,68.70
2017-11-26T12:53:13.898Z,68.40
2017-11-26T12:55:56.174Z,66.20
2017-11-26T12:58:37.262Z,64.40
2017-11-26T13:01:21.272Z,62.60
2017-11-26T13:03:57.071Z,61.90
2017-11-26T13:06:26.708Z,60.60
2017-11-26T13:08:54.831Z,59.60
2017-11-26T13:11:23.008Z,59.60
2017-11-26T13:13:51.894Z,58.80
2017-11-26T13:16:20.043Z,58.80
2017-11-26T13:18:48.940Z,55.40
2017-11-26T13:21:17.858Z,55.40
2017-11-26T13:23:46.046Z,55.40
2017-11-26T13:26:14.156Z,55.90
2017-11-26T13:28:42.303Z,55.80
2017-11-26T13:31:10.440Z,56.40
2017-11-26T13:33:38.593Z,56.30
2017-11-26T13:36:06.739Z,56.80
2017-11-26T13:38:34.863Z,57.30
2017-11-26T13:41:03.070Z,57.40
2017-11-26T13:43:31.211Z,57.60
2017-11-26T13:45:59.493Z,58.20
2017-11-26T13:48:27.604Z,58.80
2017-11-26T13:50:55.743Z,58.00
2017-11-26T13:53:23.863Z,59.00
2017-11-26T13:55:51.986Z,59.60
2017-11-26T13:58:20.117Z,59.10
2017-11-26T14:00:48.247Z,59.20
2017-11-26T14:03:16.368Z,59.90
2017-11-26T14:05:45.248Z,60.80
2017-11-26T14:08:14.161Z,60.00
2017-11-26T14:10:42.307Z,59.90
2017-11-26T14:13:10.434Z,60.10
2017-11-26T14:15:38.558Z,60.20
2017-11-26T14:18:06.700Z,60.50
2017-11-26T14:20:35.591Z,60.40
2017-11-26T14:23:03.753Z,60.40
2017-11-26T14:25:31.986Z,60.50
2017-11-26T14:28:00.132Z,60.90
2017-11-26T14:30:28.254Z,60.90
2017-11-26T14:32:56.407Z,61.10
2017-11-26T14:35:25.690Z,61.30
2017-11-26T14:37:54.692Z,61.80
2017-11-26T14:40:23.582Z,62.60
2017-11-26T14:42:52.471Z,63.10
2017-11-26T14:45:21.416Z,63.20
2017-11-26T14:47:49.551Z,63.20
2017-11-26T14:50:17.730Z,63.80
2017-11-26T14:52:46.635Z,64.20
2017-11-26T14:55:14.787Z,64.20
2017-11-26T14:57:42.907Z,64.00
2017-11-26T15:00:11.108Z,64.30
2017-11-26T15:02:40.034Z,64.20
2017-11-26T15:05:08.124Z,64.20
2017-11-26T15:07:36.300Z,66.50
2017-11-26T15:10:04.397Z,68.40
2017-11-26T15:12:32.592Z,69.10
2017-11-26T15:15:01.497Z,69.30
2017-11-26T15:17:29.684Z,69.30
2017-11-26T15:19:57.808Z,69.80
2017-11-26T15:22:27.073Z,69.60
2017-11-26T15:24:55.202Z,70.10
2017-11-26T15:27:24.113Z,69.90
2017-11-26T15:29:52.231Z,69.90
2017-11-26T15:32:20.359Z,69.60
2017-11-26T15:34:48.473Z,69.30
2017-11-26T15:37:16.602Z,68.80
2017-11-26T15:39:44.733Z,67.90
2017-11-26T15:42:13.632Z,67.90
2017-11-26T15:44:42.540Z,66.90
2017-11-26T15:47:10.660Z,66.90
2017-11-26T15:49:38.788Z,67.20
2017-11-26T15:52:06.926Z,66.50
2017-11-26T15:54:35.060Z,66.20
2017-11-26T15:57:03.216Z,66.40
2017-11-26T15:59:31.350Z,65.80
2017-11-26T16:01:59.506Z,66.30
2017-11-26T16:04:27.661Z,66.40
2017-11-26T16:06:55.798Z,66.30
2017-11-26T16:09:24.690Z,65.20
2017-11-26T16:11:52.829Z,65.20
2017-11-26T16:14:20.998Z,64.70
2017-11-26T16:16:49.901Z,64.40
2017-11-26T16:19:18.804Z,64.40
2017-11-26T16:21:47.709Z,64.20
2017-11-26T16:24:16.610Z,64.40
2017-11-26T16:26:44.724Z,64.40
2017-11-26T16:29:12.982Z,64.50
2017-11-26T16:31:41.157Z,64.90
2017-11-26T16:34:09.367Z,65.80
2017-11-26T16:36:37.487Z,67.00
2017-11-26T16:39:05.628Z,68.40
2017-11-26T16:41:34.657Z,67.80
2017-11-26T16:44:02.813Z,67.70
2017-11-26T16:46:30.933Z,67.60
2017-11-26T16:48:59.079Z,67.90
2017-11-26T16:51:27.277Z,68.40
2017-11-26T16:53:55.391Z,67.30
2017-11-26T16:56:24.307Z,66.60
2017-11-26T16:58:52.478Z,66.60
2017-11-26T17:01:21.116Z,66.20
2017-11-26T17:03:49.509Z,66.40
2017-11-26T17:06:17.718Z,66.50
2017-11-26T17:08:45.845Z,66.70
2017-11-26T17:11:13.996Z,66.70
2017-11-26T17:13:42.109Z,67.10
2017-11-26T17:16:11.035Z,68.60
2017-11-26T17:18:39.196Z,68.50
2017-11-26T17:21:08.106Z,70.60
2017-11-26T17:23:36.274Z,70.60
2017-11-26T17:26:04.412Z,70.80
2017-11-26T17:28:33.329Z,70.50
2017-11-26T17:31:01.477Z,70.40
2017-11-26T17:33:31.422Z,70.20
2017-11-26T17:35:59.622Z,70.20
2017-11-26T17:38:27.755Z,70.50
2017-11-26T17:40:56.699Z,70.80
2017-11-26T17:43:24.861Z,70.80
2017-11-26T17:45:53.928Z,69.70
2017-11-26T17:48:22.035Z,69.10
2017-11-26T17:50:50.214Z,67.60
2017-11-26T17:53:18.346Z,67.40
2017-11-26T17:55:47.318Z,66.70
2017-11-26T17:58:16.242Z,67.80
2017-11-26T18:00:44.387Z,67.20
2017-11-26T18:03:13.292Z,67.10
2017-11-26T18:05:42.174Z,67.10
2017-11-26T18:08:10.464Z,67.10
2017-11-26T18:10:38.710Z,67.40
2017-11-26T18:13:06.825Z,67.30
2017-11-26T18:15:34.980Z,67.60
2017-11-26T18:18:03.878Z,67.30
2017-11-26T18:20:32.032Z,67.30
2017-11-26T18:23:00.949Z,66.50
2017-11-26T18:25:29.118Z,66.50
2017-11-26T18:27:57.256Z,66.20
2017-11-26T18:30:26.169Z,65.90
2017-11-26T18:32:55.074Z,66.30
2017-11-26T18:35:23.227Z,66.40
2017-11-26T18:37:52.123Z,66.40
2017-11-26T18:40:20.409Z,66.40
2017-11-26T18:42:48.574Z,66.70
2017-11-26T18:45:17.481Z,66.60
2017-11-26T18:47:45.618Z,66.50
2017-11-26T18:50:14.513Z,67.00
2017-11-26T18:52:43.459Z,67.10
2017-11-26T18:55:11.573Z,67.20
2017-11-26T18:57:40.501Z,68.00
2017-11-26T19:00:08.702Z,68.00
2017-11-26T19:02:36.885Z,68.00
2017-11-26T19:05:05.013Z,68.20
2017-11-26T19:07:33.176Z,68.30
2017-11-26T19:10:01.381Z,68.70
2017-11-26T19:12:29.502Z,69.00
2017-11-26T19:14:57.686Z,69.00
2017-11-26T19:17:26.567Z,69.30
2017-11-26T19:19:55.539Z,69.40
2017-11-26T19:22:23.685Z,69.40
2017-11-26T19:24:51.861Z,69.60
2017-11-26T19:27:19.988Z,69.70
2017-11-26T19:29:48.971Z,70.00
2017-11-26T19:32:17.166Z,70.00
2017-11-26T19:34:46.147Z,70.30
2017-11-26T19:37:15.049Z,70.40
2017-11-26T19:39:43.972Z,70.60
2017-11-26T19:42:13.029Z,70.60
2017-11-26T19:44:41.223Z,70.60
2017-11-26T19:47:09.410Z,70.40
2017-11-26T19:49:38.379Z,70.40
2017-11-26T19:52:06.870Z,70.80
2017-11-26T19:54:35.041Z,70.70
2017-11-26T19:57:03.296Z,70.50
2017-11-26T19:59:32.204Z,70.80
2017-11-26T20:02:00.477Z,70.80
2017-11-26T20:04:28.653Z,70.60
2017-11-26T20:06:56.796Z,70.60
2017-11-26T20:09:25.739Z,70.10
2017-11-26T20:11:53.861Z,70.70
2017-11-26T20:14:22.789Z,70.10
2017-11-26T20:16:51.037Z,70.10
2017-11-26T20:19:20.045Z,70.10
2017-11-26T20:21:48.210Z,70.10
2017-11-26T20:24:16.426Z,69.80
2017-11-26T20:26:44.707Z,70.00
2017-11-26T20:29:12.885Z,69.90
2017-11-26T20:31:41.062Z,69.70
2017-11-26T20:34:09.272Z,69.80
2017-11-26T20:36:38.194Z,69.60
2017-11-26T20:39:06.352Z,69.60
2017-11-26T20:41:34.501Z,69.50
2017-11-26T20:44:03.527Z,69.50
2017-11-26T20:46:31.662Z,69.50
2017-11-26T20:48:59.881Z,69.50
2017-11-26T20:51:28.025Z,69.10
2017-11-26T20:53:57.069Z,68.50
2017-11-26T20:56:25.420Z,68.40
2017-11-26T20:58:53.936Z,68.50
2017-11-26T21:01:22.087Z,68.50
2017-11-26T21:03:51.252Z,68.40
2017-11-26T21:06:19.557Z,68.30
2017-11-26T21:08:47.717Z,68.40
2017-11-26T21:11:16.777Z,68.50
2017-11-26T21:13:44.922Z,68.50
2017-11-26T21:16:13.439Z,68.60
2017-11-26T21:18:41.902Z,68.60
2017-11-26T21:21:10.065Z,68.50
2017-11-26T21:23:38.980Z,68.60
2017-11-26T21:26:07.457Z,68.70
2017-11-26T21:28:36.612Z,68.50
2017-11-26T21:31:05.037Z,68.70
2017-11-26T21:33:33.173Z,68.50
2017-11-26T21:36:01.336Z,68.50
2017-11-26T21:38:29.642Z,68.50
2017-11-26T21:40:57.783Z,68.50
2017-11-26T21:43:25.933Z,68.60
2017-11-26T21:45:54.071Z,68.20
2017-11-26T21:48:22.183Z,67.90
2017-11-26T21:50:50.879Z,68.10
2017-11-26T21:53:19.069Z,67.90
2017-11-26T21:55:47.316Z,67.80
2017-11-26T21:58:15.690Z,67.70
2017-11-26T22:00:43.840Z,67.80
2017-11-26T22:03:12.740Z,68.20
2017-11-26T22:05:41.770Z,67.80
2017-11-26T22:08:09.935Z,68.30
2017-11-26T22:10:38.223Z,68.00
2017-11-26T22:13:06.458Z,68.20
2017-11-26T22:15:34.712Z,67.70
2017-11-26T22:18:02.942Z,67.80
2017-11-26T22:20:31.123Z,67.80
2017-11-26T22:22:59.236Z,67.80
2017-11-26T22:25:27.412Z,67.70
2017-11-26T22:27:56.417Z,67.70
2017-11-26T22:30:24.715Z,67.50
2017-11-26T22:32:53.680Z,67.70
2017-11-26T22:35:21.840Z,67.70
2017-11-26T22:37:49.996Z,67.60
2017-11-26T22:40:18.175Z,67.80
2017-11-26T22:42:46.375Z,68.60
2017-11-26T22:45:14.537Z,67.90
2017-11-26T22:47:42.715Z,67.80
2017-11-26T22:50:10.910Z,68.00
2017-11-26T22:52:39.069Z,67.90
2017-11-26T22:55:08.336Z,67.70
2017-11-26T22:57:37.413Z,67.80
2017-11-26T23:00:05.672Z,67.80
2017-11-26T23:02:33.937Z,68.00
2017-11-26T23:05:02.837Z,68.00
2017-11-26T23:07:30.973Z,68.00
2017-11-26T23:09:59.129Z,68.00
2017-11-26T23:12:28.065Z,67.80
2017-11-26T23:14:57.093Z,67.90
2017-11-26T23:17:25.299Z,67.90
2017-11-26T23:19:53.412Z,68.10
2017-11-26T23:22:21.654Z,68.30
2017-11-26T23:24:49.915Z,68.30
2017-11-26T23:27:18.038Z,68.50
2017-11-26T23:29:46.361Z,68.40
2017-11-26T23:32:14.667Z,68.60
2017-11-26T23:34:42.779Z,68.70
2017-11-26T23:37:11.099Z,68.90
2017-11-26T23:39:39.198Z,68.70
2017-11-26T23:42:08.158Z,68.70
2017-11-26T23:44:36.520Z,68.70
2017-11-26T23:47:04.682Z,68.80
2017-11-26T23:49:32.873Z,68.60
2017-11-26T23:52:01.133Z,68.80
2017-11-26T23:54:29.989Z,68.60
2017-11-26T23:56:59.257Z,68.50
2017-11-26T23:59:27.891Z,68.40
